sensor_id;sensor_type;location;lat;lon;timestamp;pressure;altitude;pressure_sealevel;temperature;humidity
58658;BME280;44428;45.630;13.786;2023-02-18T00:00:55;102850.63;;;7.71;100.00
58658;BME280;44428;45.630;13.786;2023-02-18T00:03:24;102848.06;;;7.68;100.00
58658;BME280;44428;45.630;13.786;2023-02-18T00:05:51;102846.19;;;7.73;100.00
58658;BME280;44428;45.630;13.786;2023-02-18T00:08:19;102847.97;;;7.71;100.00
58658;BME280;44428;45.630;13.786;2023-02-18T00:10:46;102844.53;;;7.69;100.00
58658;BME280;44428;45.630;13.786;2023-02-18T00:13:12;102840.94;;;7.73;100.00
58658;BME280;44428;45.630;13.786;2023-02-18T00:15:39;102830.47;;;7.70;100.00
58658;BME280;44428;45.630;13.786;2023-02-18T00:18:05;102832.19;;;7.71;100.00
58658;BME280;44428;45.630;13.786;2023-02-18T00:20:32;102819.88;;;7.73;100.00
58658;BME280;44428;45.630;13.786;2023-02-18T00:23:01;102817.94;;;7.82;100.00
58658;BME280;44428;45.630;13.786;2023-02-18T00:25:28;102823.28;;;7.78;100.00
58658;BME280;44428;45.630;13.786;2023-02-18T00:27:54;102814.63;;;7.73;100.00
58658;BME280;44428;45.630;13.786;2023-02-18T00:30:20;102811.22;;;7.68;100.00
58658;BME280;44428;45.630;13.786;2023-02-18T00:32:46;102814.69;;;7.70;100.00
58658;BME280;44428;45.630;13.786;2023-02-18T00:35:12;102814.75;;;7.67;100.00
58658;BME280;44428;45.630;13.786;2023-02-18T00:37:43;102818.31;;;7.66;100.00
58658;BME280;44428;45.630;13.786;2023-02-18T00:40:09;102821.81;;;7.65;100.00
58658;BME280;44428;45.630;13.786;2023-02-18T00:42:35;102820.03;;;7.67;100.00
58658;BME280;44428;45.630;13.786;2023-02-18T00:45:02;102818.31;;;7.66;100.00
58658;BME280;44428;45.630;13.786;2023-02-18T00:47:28;102810.19;;;7.75;100.00
58658;BME280;44428;45.630;13.786;2023-02-18T00:49:54;102805.53;;;7.87;100.00
58658;BME280;44428;45.630;13.786;2023-02-18T00:52:20;102794.09;;;7.86;100.00
58658;BME280;44428;45.630;13.786;2023-02-18T00:54:46;102794.09;;;7.88;100.00
58658;BME280;44428;45.630;13.786;2023-02-18T00:57:13;102790.59;;;7.87;100.00
58658;BME280;44428;45.630;13.786;2023-02-18T00:59:39;102789.56;;;7.93;100.00
58658;BME280;44428;45.630;13.786;2023-02-18T01:02:05;102793.16;;;7.89;100.00
58658;BME280;44428;45.630;13.786;2023-02-18T01:04:32;102807.31;;;7.85;100.00
58658;BME280;44428;45.630;13.786;2023-02-18T01:06:58;102808.16;;;7.87;100.00
58658;BME280;44428;45.630;13.786;2023-02-18T01:09:24;102803.00;;;7.82;100.00
58658;BME280;44428;45.630;13.786;2023-02-18T01:11:51;102799.44;;;7.83;100.00
58658;BME280;44428;45.630;13.786;2023-02-18T01:14:17;102810.84;;;7.84;100.00
58658;BME280;44428;45.630;13.786;2023-02-18T01:16:43;102812.66;;;7.82;100.00
58658;BME280;44428;45.630;13.786;2023-02-18T01:19:10;102812.59;;;7.85;100.00
58658;BME280;44428;45.630;13.786;2023-02-18T01:21:37;102809.03;;;7.86;100.00
58658;BME280;44428;45.630;13.786;2023-02-18T01:24:04;102800.31;;;7.84;100.00
58658;BME280;44428;45.630;13.786;2023-02-18T01:26:30;102796.88;;;7.82;100.00
58658;BME280;44428;45.630;13.786;2023-02-18T01:28:56;102805.66;;;7.80;100.00
58658;BME280;44428;45.630;13.786;2023-02-18T01:31:23;102789.94;;;7.77;100.00
58658;BME280;44428;45.630;13.786;2023-02-18T01:33:50;102793.47;;;7.76;100.00
58658;BME280;44428;45.630;13.786;2023-02-18T01:36:17;102791.75;;;7.75;100.00
58658;BME280;44428;45.630;13.786;2023-02-18T01:38:43;102791.75;;;7.75;100.00
58658;BME280;44428;45.630;13.786;2023-02-18T01:41:10;102782.97;;;7.76;100.00
58658;BME280;44428;45.630;13.786;2023-02-18T01:43:36;102778.53;;;7.78;100.00
58658;BME280;44428;45.630;13.786;2023-02-18T01:46:07;102781.16;;;7.78;100.00
58658;BME280;44428;45.630;13.786;2023-02-18T01:48:43;102786.44;;;7.78;100.00
58658;BME280;44428;45.630;13.786;2023-02-18T01:51:51;102765.38;;;7.78;100.00
58658;BME280;44428;45.630;13.786;2023-02-18T01:57:16;102749.44;;;7.83;100.00
58658;BME280;44428;45.630;13.786;2023-02-18T01:59:49;102744.22;;;7.82;100.00
58658;BME280;44428;45.630;13.786;2023-02-18T02:02:20;102752.13;;;7.82;100.00
58658;BME280;44428;45.630;13.786;2023-02-18T02:04:47;102751.22;;;7.83;100.00
58658;BME280;44428;45.630;13.786;2023-02-18T02:07:14;102756.47;;;7.83;100.00
58658;BME280;44428;45.630;13.786;2023-02-18T02:09:41;102755.63;;;7.82;100.00
58658;BME280;44428;45.630;13.786;2023-02-18T02:23:33;102756.63;;;7.78;100.00
58658;BME280;44428;45.630;13.786;2023-02-18T02:34:44;102753.09;;;7.77;100.00
58658;BME280;44428;45.630;13.786;2023-02-18T02:37:43;102753.97;;;7.78;100.00
58658;BME280;44428;45.630;13.786;2023-02-18T02:43:40;102739.13;;;7.75;100.00
58658;BME280;44428;45.630;13.786;2023-02-18T02:46:17;102738.13;;;7.79;100.00
58658;BME280;44428;45.630;13.786;2023-02-18T02:54:23;102732.78;;;7.84;100.00
58658;BME280;44428;45.630;13.786;2023-02-18T02:57:07;102731.97;;;7.80;100.00
58658;BME280;44428;45.630;13.786;2023-02-18T02:59:40;102737.13;;;7.84;100.00
58658;BME280;44428;45.630;13.786;2023-02-18T03:13:53;102740.66;;;7.84;100.00
58658;BME280;44428;45.630;13.786;2023-02-18T03:16:41;102736.28;;;7.83;100.00
58658;BME280;44428;45.630;13.786;2023-02-18T03:21:47;102733.63;;;7.85;100.00
58658;BME280;44428;45.630;13.786;2023-02-18T03:24:22;102724.81;;;7.86;100.00
58658;BME280;44428;45.630;13.786;2023-02-18T03:26:56;102727.44;;;7.86;100.00
58658;BME280;44428;45.630;13.786;2023-02-18T03:29:25;102728.38;;;7.85;100.00
58658;BME280;44428;45.630;13.786;2023-02-18T03:31:57;102717.84;;;7.85;100.00
58658;BME280;44428;45.630;13.786;2023-02-18T03:34:29;102718.69;;;7.85;100.00
58658;BME280;44428;45.630;13.786;2023-02-18T03:36:57;102723.03;;;7.88;100.00
58658;BME280;44428;45.630;13.786;2023-02-18T03:39:27;102721.22;;;7.90;100.00
58658;BME280;44428;45.630;13.786;2023-02-18T03:41:54;102721.31;;;7.87;100.00
58658;BME280;44428;45.630;13.786;2023-02-18T03:44:20;102714.28;;;7.86;100.00
58658;BME280;44428;45.630;13.786;2023-02-18T03:46:50;102719.56;;;7.86;100.00
58658;BME280;44428;45.630;13.786;2023-02-18T03:49:18;102711.66;;;7.86;100.00
58658;BME280;44428;45.630;13.786;2023-02-18T03:51:47;102708.94;;;7.89;100.00
58658;BME280;44428;45.630;13.786;2023-02-18T03:54:13;102717.66;;;7.91;100.00
58658;BME280;44428;45.630;13.786;2023-02-18T03:56:41;102709.78;;;7.91;100.00
58658;BME280;44428;45.630;13.786;2023-02-18T03:59:10;102712.34;;;7.92;100.00
58658;BME280;44428;45.630;13.786;2023-02-18T04:01:36;102717.59;;;7.94;100.00
58658;BME280;44428;45.630;13.786;2023-02-18T04:04:03;102712.31;;;7.94;100.00
58658;BME280;44428;45.630;13.786;2023-02-18T04:06:30;102712.31;;;7.94;100.00
58658;BME280;44428;45.630;13.786;2023-02-18T04:08:56;102714.91;;;7.95;100.00
58658;BME280;44428;45.630;13.786;2023-02-18T04:11:23;102717.50;;;7.97;100.00
58658;BME280;44428;45.630;13.786;2023-02-18T04:13:49;102718.41;;;7.96;100.00
58658;BME280;44428;45.630;13.786;2023-02-18T04:16:15;102719.31;;;7.95;100.00
58658;BME280;44428;45.630;13.786;2023-02-18T04:18:41;102726.31;;;7.96;100.00
58658;BME280;44428;45.630;13.786;2023-02-18T04:21:08;102728.03;;;7.97;100.00
58658;BME280;44428;45.630;13.786;2023-02-18T04:23:34;102716.66;;;7.95;100.00
58658;BME280;44428;45.630;13.786;2023-02-18T04:26:00;102717.50;;;7.97;100.00
58658;BME280;44428;45.630;13.786;2023-02-18T04:28:26;102710.53;;;7.96;100.00
58658;BME280;44428;45.630;13.786;2023-02-18T04:30:52;102714.03;;;7.95;100.00
58658;BME280;44428;45.630;13.786;2023-02-18T04:33:19;102711.31;;;7.98;100.00
58658;BME280;44428;45.630;13.786;2023-02-18T04:35:45;102712.25;;;7.97;100.00
58658;BME280;44428;45.630;13.786;2023-02-18T04:38:11;102712.31;;;7.94;100.00
58658;BME280;44428;45.630;13.786;2023-02-18T04:40:37;102708.78;;;7.95;100.00
58658;BME280;44428;45.630;13.786;2023-02-18T04:43:03;102708.78;;;7.95;100.00
58658;BME280;44428;45.630;13.786;2023-02-18T04:45:30;102694.72;;;7.96;100.00
58658;BME280;44428;45.630;13.786;2023-02-18T04:47:56;102703.44;;;7.98;100.00
58658;BME280;44428;45.630;13.786;2023-02-18T04:50:22;102709.69;;;7.94;100.00
58658;BME280;44428;45.630;13.786;2023-02-18T04:52:48;102698.41;;;7.89;100.00
58658;BME280;44428;45.630;13.786;2023-02-18T04:55:14;102703.50;;;7.95;100.00
58658;BME280;44428;45.630;13.786;2023-02-18T04:57:41;102711.38;;;7.96;100.00
58658;BME280;44428;45.630;13.786;2023-02-18T05:00:09;102700.88;;;7.95;100.00
58658;BME280;44428;45.630;13.786;2023-02-18T05:02:36;102698.25;;;7.95;100.00
58658;BME280;44428;45.630;13.786;2023-02-18T05:05:02;102701.78;;;7.94;100.00
58658;BME280;44428;45.630;13.786;2023-02-18T05:07:28;102705.25;;;7.96;100.00
58658;BME280;44428;45.630;13.786;2023-02-18T05:09:54;102701.63;;;8.00;100.00
58658;BME280;44428;45.630;13.786;2023-02-18T05:12:21;102699.06;;;7.97;100.00
58658;BME280;44428;45.630;13.786;2023-02-18T05:14:47;102703.50;;;7.95;100.00
58658;BME280;44428;45.630;13.786;2023-02-18T05:17:13;102694.91;;;7.90;100.00
58658;BME280;44428;45.630;13.786;2023-02-18T05:19:39;102693.22;;;7.86;100.00
58658;BME280;44428;45.630;13.786;2023-02-18T05:22:05;102689.72;;;7.87;100.00
58658;BME280;44428;45.630;13.786;2023-02-18T05:24:31;102689.72;;;7.87;100.00
58658;BME280;44428;45.630;13.786;2023-02-18T05:26:58;102687.09;;;7.85;100.00
58658;BME280;44428;45.630;13.786;2023-02-18T05:29:24;102693.22;;;7.86;100.00
58658;BME280;44428;45.630;13.786;2023-02-18T05:31:50;102694.09;;;7.86;100.00
58658;BME280;44428;45.630;13.786;2023-02-18T05:34:17;102689.72;;;7.87;100.00
58658;BME280;44428;45.630;13.786;2023-02-18T05:36:43;102705.44;;;7.90;100.00
58658;BME280;44428;45.630;13.786;2023-02-18T05:39:09;102701.88;;;7.91;100.00
58658;BME280;44428;45.630;13.786;2023-02-18T05:41:35;102696.69;;;7.88;100.00
58658;BME280;44428;45.630;13.786;2023-02-18T05:44:01;102708.94;;;7.89;100.00
58658;BME280;44428;45.630;13.786;2023-02-18T05:46:46;102705.44;;;7.88;100.00
58658;BME280;44428;45.630;13.786;2023-02-18T05:49:12;102706.38;;;7.87;100.00
58658;BME280;44428;45.630;13.786;2023-02-18T05:51:38;102705.50;;;7.87;100.00
58658;BME280;44428;45.630;13.786;2023-02-18T05:54:05;102703.75;;;7.86;100.00
58658;BME280;44428;45.630;13.786;2023-02-18T05:56:31;102705.50;;;7.87;100.00
58658;BME280;44428;45.630;13.786;2023-02-18T05:58:57;102700.25;;;7.87;100.00
58658;BME280;44428;45.630;13.786;2023-02-18T06:01:23;102708.94;;;7.89;100.00
58658;BME280;44428;45.630;13.786;2023-02-18T06:03:49;102713.31;;;7.90;100.00
58658;BME280;44428;45.630;13.786;2023-02-18T06:06:15;102707.09;;;7.92;100.00
58658;BME280;44428;45.630;13.786;2023-02-18T06:08:41;102703.59;;;7.92;100.00
58658;BME280;44428;45.630;13.786;2023-02-18T06:11:07;102705.34;;;7.93;100.00
58658;BME280;44428;45.630;13.786;2023-02-18T06:13:34;102704.38;;;7.95;100.00
58658;BME280;44428;45.630;13.786;2023-02-18T06:16:00;102700.78;;;7.98;100.00
58658;BME280;44428;45.630;13.786;2023-02-18T06:18:26;102703.44;;;7.98;100.00
58658;BME280;44428;45.630;13.786;2023-02-18T06:20:52;102703.34;;;8.01;100.00
58658;BME280;44428;45.630;13.786;2023-02-18T06:23:18;102712.06;;;8.03;100.00
58658;BME280;44428;45.630;13.786;2023-02-18T06:25:47;102723.44;;;8.05;100.00
58658;BME280;44428;45.630;13.786;2023-02-18T06:28:16;102719.91;;;8.04;100.00
58658;BME280;44428;45.630;13.786;2023-02-18T06:30:44;102727.78;;;8.06;100.00
58658;BME280;44428;45.630;13.786;2023-02-18T06:33:11;102725.09;;;8.08;100.00
58658;BME280;44428;45.630;13.786;2023-02-18T06:35:37;102732.97;;;8.09;100.00
58658;BME280;44428;45.630;13.786;2023-02-18T06:38:04;102731.16;;;8.11;100.00
58658;BME280;44428;45.630;13.786;2023-02-18T06:40:30;102731.06;;;8.14;100.00
58658;BME280;44428;45.630;13.786;2023-02-18T06:42:56;102738.06;;;8.15;100.00
58658;BME280;44428;45.630;13.786;2023-02-18T06:45:22;102733.66;;;8.16;100.00
58658;BME280;44428;45.630;13.786;2023-02-18T06:47:48;102737.88;;;8.21;100.00
58658;BME280;44428;45.630;13.786;2023-02-18T06:50:15;102737.88;;;8.21;100.00
58658;BME280;44428;45.630;13.786;2023-02-18T06:52:41;102737.88;;;8.21;100.00
58658;BME280;44428;45.630;13.786;2023-02-18T06:55:08;102736.09;;;8.23;100.00
58658;BME280;44428;45.630;13.786;2023-02-18T06:57:35;102733.56;;;8.19;100.00
58658;BME280;44428;45.630;13.786;2023-02-18T07:00:02;102727.25;;;8.24;100.00
58658;BME280;44428;45.630;13.786;2023-02-18T07:02:30;102731.63;;;8.25;100.00
58658;BME280;44428;45.630;13.786;2023-02-18T07:04:56;102741.28;;;8.26;100.00
58658;BME280;44428;45.630;13.786;2023-02-18T07:07:24;102737.63;;;8.31;100.00
58658;BME280;44428;45.630;13.786;2023-02-18T07:09:50;102734.06;;;8.32;100.00
58658;BME280;44428;45.630;13.786;2023-02-18T07:12:17;102734.97;;;8.32;100.00
58658;BME280;44428;45.630;13.786;2023-02-18T07:14:43;102734.00;;;8.35;100.00
58658;BME280;44428;45.630;13.786;2023-02-18T07:17:09;102737.44;;;8.37;100.00
58658;BME280;44428;45.630;13.786;2023-02-18T07:19:35;102736.53;;;8.38;100.00
58658;BME280;44428;45.630;13.786;2023-02-18T07:22:02;102732.03;;;8.43;100.00
58658;BME280;44428;45.630;13.786;2023-02-18T07:24:28;102721.31;;;8.49;100.00
58658;BME280;44428;45.630;13.786;2023-02-18T07:26:54;102719.53;;;8.51;100.00
58658;BME280;44428;45.630;13.786;2023-02-18T07:29:20;102721.06;;;8.58;100.00
58658;BME280;44428;45.630;13.786;2023-02-18T07:31:47;102722.56;;;8.67;100.00
58658;BME280;44428;45.630;13.786;2023-02-18T07:34:13;102731.22;;;8.70;100.00
58658;BME280;44428;45.630;13.786;2023-02-18T07:36:39;102731.13;;;8.74;100.00
58658;BME280;44428;45.630;13.786;2023-02-18T07:39:06;102739.78;;;8.79;100.00
58658;BME280;44428;45.630;13.786;2023-02-18T07:41:32;102724.69;;;8.84;100.00
58658;BME280;44428;45.630;13.786;2023-02-18T07:43:59;102726.41;;;8.85;100.00
58658;BME280;44428;45.630;13.786;2023-02-18T07:46:25;102727.13;;;8.90;100.00
58658;BME280;44428;45.630;13.786;2023-02-18T07:48:52;102726.94;;;8.96;100.00
58658;BME280;44428;45.630;13.786;2023-02-18T07:51:18;102725.09;;;8.98;100.00
58658;BME280;44428;45.630;13.786;2023-02-18T07:53:44;102727.59;;;9.03;100.00
58658;BME280;44428;45.630;13.786;2023-02-18T07:56:10;102734.59;;;9.04;100.00
58658;BME280;44428;45.630;13.786;2023-02-18T07:58:38;102736.25;;;9.08;99.89
58658;BME280;44428;45.630;13.786;2023-02-18T08:01:09;102733.53;;;9.09;100.00
58658;BME280;44428;45.630;13.786;2023-02-18T08:03:36;102736.91;;;9.14;100.00
58658;BME280;44428;45.630;13.786;2023-02-18T08:06:04;102739.47;;;9.16;100.00
58658;BME280;44428;45.630;13.786;2023-02-18T08:08:33;102738.53;;;9.18;100.00
58658;BME280;44428;45.630;13.786;2023-02-18T08:11:01;102735.06;;;9.16;100.00
58658;BME280;44428;45.630;13.786;2023-02-18T08:13:29;102746.50;;;9.17;100.00
58658;BME280;44428;45.630;13.786;2023-02-18T08:15:56;102739.38;;;9.19;100.00
58658;BME280;44428;45.630;13.786;2023-02-18T08:18:23;102734.97;;;9.20;100.00
58658;BME280;44428;45.630;13.786;2023-02-18T08:20:51;102746.31;;;9.23;100.00
58658;BME280;44428;45.630;13.786;2023-02-18T08:23:21;102745.41;;;9.23;100.00
58658;BME280;44428;45.630;13.786;2023-02-18T08:25:49;102752.44;;;9.24;100.00
58658;BME280;44428;45.630;13.786;2023-02-18T08:28:20;102754.16;;;9.25;100.00
58658;BME280;44428;45.630;13.786;2023-02-18T08:30:49;102738.22;;;9.28;100.00
58658;BME280;44428;45.630;13.786;2023-02-18T08:33:17;102743.31;;;9.34;100.00
58658;BME280;44428;45.630;13.786;2023-02-18T08:35:46;102749.13;;;9.44;100.00
58658;BME280;44428;45.630;13.786;2023-02-18T08:38:13;102747.97;;;9.52;100.00
58658;BME280;44428;45.630;13.786;2023-02-18T08:40:40;102743.41;;;9.57;100.00
58658;BME280;44428;45.630;13.786;2023-02-18T08:43:07;102753.66;;;9.67;100.00
58658;BME280;44428;45.630;13.786;2023-02-18T08:45:33;102756.19;;;9.70;100.00
58658;BME280;44428;45.630;13.786;2023-02-18T08:48:07;102749.78;;;9.77;100.00
58658;BME280;44428;45.630;13.786;2023-02-18T08:50:34;102743.41;;;9.84;99.53
58658;BME280;44428;45.630;13.786;2023-02-18T08:53:01;102736.16;;;9.89;99.25
58658;BME280;44428;45.630;13.786;2023-02-18T08:55:29;102749.03;;;9.98;98.74
58658;BME280;44428;45.630;13.786;2023-02-18T08:57:56;102753.22;;;10.05;98.35
58658;BME280;44428;45.630;13.786;2023-02-18T09:00:22;102748.56;;;10.12;97.83
58658;BME280;44428;45.630;13.786;2023-02-18T09:02:49;102745.66;;;10.20;97.55
58658;BME280;44428;45.630;13.786;2023-02-18T09:05:15;102738.41;;;10.25;97.15
58658;BME280;44428;45.630;13.786;2023-02-18T09:07:42;102736.38;;;10.33;96.73
58658;BME280;44428;45.630;13.786;2023-02-18T09:10:09;102726.44;;;10.40;96.00
58658;BME280;44428;45.630;13.786;2023-02-18T09:12:35;102727.84;;;10.50;95.25
58658;BME280;44428;45.630;13.786;2023-02-18T09:15:02;102732.72;;;10.61;94.91
58658;BME280;44428;45.630;13.786;2023-02-18T09:17:30;102729.84;;;10.67;94.23
58658;BME280;44428;45.630;13.786;2023-02-18T09:19:56;102728.66;;;10.74;93.71
58658;BME280;44428;45.630;13.786;2023-02-18T09:22:22;102735.63;;;10.76;92.07
58658;BME280;44428;45.630;13.786;2023-02-18T09:24:49;102734.41;;;10.85;92.15
58658;BME280;44428;45.630;13.786;2023-02-18T09:27:15;102722.69;;;10.92;91.66
58658;BME280;44428;45.630;13.786;2023-02-18T09:29:43;102719.66;;;11.02;91.04
58658;BME280;44428;45.630;13.786;2023-02-18T09:32:17;102712.25;;;11.10;89.20
58658;BME280;44428;45.630;13.786;2023-02-18T09:34:44;102708.47;;;11.17;88.31
58658;BME280;44428;45.630;13.786;2023-02-18T09:37:10;102706.22;;;11.28;86.90
58658;BME280;44428;45.630;13.786;2023-02-18T09:39:39;102704.00;;;11.39;86.17
58658;BME280;44428;45.630;13.786;2023-02-18T09:42:31;102705.06;;;11.56;85.32
58658;BME280;44428;45.630;13.786;2023-02-18T09:45:06;102700.97;;;11.69;84.01
58658;BME280;44428;45.630;13.786;2023-02-18T09:47:39;102700.31;;;11.84;82.99
58658;BME280;44428;45.630;13.786;2023-02-18T09:50:28;102701.38;;;12.01;80.33
58658;BME280;44428;45.630;13.786;2023-02-18T09:52:58;102705.97;;;12.16;78.65
58658;BME280;44428;45.630;13.786;2023-02-18T09:55:32;102703.06;;;12.22;78.10
58658;BME280;44428;45.630;13.786;2023-02-18T09:58:16;102705.28;;;12.31;77.80
58658;BME280;44428;45.630;13.786;2023-02-18T10:00:47;102706.03;;;12.54;77.40
58658;BME280;44428;45.630;13.786;2023-02-18T10:03:24;102690.38;;;12.86;75.97
58658;BME280;44428;45.630;13.786;2023-02-18T10:12:12;102675.44;;;13.56;70.53
58658;BME280;44428;45.630;13.786;2023-02-18T10:14:35;102676.28;;;13.56;68.96
58658;BME280;44428;45.630;13.786;2023-02-18T10:17:02;102678.84;;;13.58;68.89
58658;BME280;44428;45.630;13.786;2023-02-18T10:19:33;102690.47;;;13.55;69.53
58658;BME280;44428;45.630;13.786;2023-02-18T10:22:01;102692.22;;;13.56;70.14
58658;BME280;44428;45.630;13.786;2023-02-18T10:24:32;102686.91;;;13.56;69.26
58658;BME280;44428;45.630;13.786;2023-02-18T10:27:00;102694.25;;;13.51;69.82
58658;BME280;44428;45.630;13.786;2023-02-18T10:29:28;102694.72;;;13.42;70.75
58658;BME280;44428;45.630;13.786;2023-02-18T10:32:23;102697.53;;;13.39;71.25
58658;BME280;44428;45.630;13.786;2023-02-18T10:40:47;102689.31;;;13.07;71.86
58658;BME280;44428;45.630;13.786;2023-02-18T10:43:32;102685.75;;;13.08;71.93
58658;BME280;44428;45.630;13.786;2023-02-18T10:51:28;102671.59;;;13.26;69.94
58658;BME280;44428;45.630;13.786;2023-02-18T10:53:55;102668.47;;;13.36;69.85
58658;BME280;44428;45.630;13.786;2023-02-18T10:56:49;102675.19;;;13.43;69.83
58658;BME280;44428;45.630;13.786;2023-02-18T10:59:20;102676.75;;;13.47;69.66
58658;BME280;44428;45.630;13.786;2023-02-18T11:01:54;102658.94;;;13.49;69.18
58658;BME280;44428;45.630;13.786;2023-02-18T11:04:27;102647.81;;;13.58;68.83
58658;BME280;44428;45.630;13.786;2023-02-18T11:07:11;102652.81;;;13.64;68.56
58658;BME280;44428;45.630;13.786;2023-02-18T11:12:16;102633.88;;;13.88;67.74
58658;BME280;44428;45.630;13.786;2023-02-18T11:14:46;102642.75;;;14.04;67.17
58658;BME280;44428;45.630;13.786;2023-02-18T11:17:27;102641.13;;;14.17;66.53
58658;BME280;44428;45.630;13.786;2023-02-18T11:20:00;102625.69;;;14.24;66.02
58658;BME280;44428;45.630;13.786;2023-02-18T11:22:32;102634.63;;;14.23;64.99
58658;BME280;44428;45.630;13.786;2023-02-18T11:25:01;102632.88;;;14.06;65.25
58658;BME280;44428;45.630;13.786;2023-02-18T11:27:43;102621.38;;;14.06;66.22
58658;BME280;44428;45.630;13.786;2023-02-18T11:33:02;102609.66;;;13.77;67.20
58658;BME280;44428;45.630;13.786;2023-02-18T11:35:32;102617.91;;;13.72;67.80
58658;BME280;44428;45.630;13.786;2023-02-18T11:38:01;102618.00;;;13.53;67.89
58658;BME280;44428;45.630;13.786;2023-02-18T11:40:33;102613.50;;;13.38;68.52
58658;BME280;44428;45.630;13.786;2023-02-18T11:43:11;102615.66;;;13.12;69.03
58658;BME280;44428;45.630;13.786;2023-02-18T11:45:38;102613.16;;;13.09;69.50
58658;BME280;44428;45.630;13.786;2023-02-18T11:50:39;102613.44;;;13.03;69.82
58658;BME280;44428;45.630;13.786;2023-02-18T11:55:54;102601.44;;;12.96;69.71
58658;BME280;44428;45.630;13.786;2023-02-18T11:58:21;102593.66;;;13.10;69.09
58658;BME280;44428;45.630;13.786;2023-02-18T12:00:48;102585.38;;;13.34;67.83
58658;BME280;44428;45.630;13.786;2023-02-18T12:04:00;102587.84;;;13.54;66.89
58658;BME280;44428;45.630;13.786;2023-02-18T12:09:30;102581.38;;;13.75;65.92
58658;BME280;44428;45.630;13.786;2023-02-18T12:12:04;102577.59;;;13.80;64.76
58658;BME280;44428;45.630;13.786;2023-02-18T12:14:31;102573.19;;;13.96;64.05
58658;BME280;44428;45.630;13.786;2023-02-18T12:29:08;102550.91;;;14.30;62.90
58658;BME280;44428;45.630;13.786;2023-02-18T12:48:03;102543.25;;;13.77;65.06
58658;BME280;44428;45.630;13.786;2023-02-18T13:01:59;102519.50;;;14.37;64.48
58658;BME280;44428;45.630;13.786;2023-02-18T13:10:07;102514.06;;;15.15;60.76
58658;BME280;44428;45.630;13.786;2023-02-18T13:13:06;102503.59;;;15.83;58.89
58658;BME280;44428;45.630;13.786;2023-02-18T13:15:52;102498.47;;;15.80;58.79
58658;BME280;44428;45.630;13.786;2023-02-18T13:18:33;102507.28;;;15.66;59.42
58658;BME280;44428;45.630;13.786;2023-02-18T13:21:11;102502.66;;;15.41;60.58
58658;BME280;44428;45.630;13.786;2023-02-18T13:23:45;102494.00;;;15.23;61.50
58658;BME280;44428;45.630;13.786;2023-02-18T13:26:15;102497.50;;;15.09;61.91
58658;BME280;44428;45.630;13.786;2023-02-18T13:28:44;102491.69;;;15.60;61.29
58658;BME280;44428;45.630;13.786;2023-02-18T13:31:41;102489.81;;;16.03;60.94
58658;BME280;44428;45.630;13.786;2023-02-18T13:39:49;102485.63;;;16.14;60.71
58658;BME280;44428;45.630;13.786;2023-02-18T13:47:39;102487.22;;;14.59;67.09
58658;BME280;44428;45.630;13.786;2023-02-18T13:55:50;102481.88;;;15.03;67.96
58658;BME280;44428;45.630;13.786;2023-02-18T14:06:17;102459.06;;;15.28;65.91
58658;BME280;44428;45.630;13.786;2023-02-18T14:08:44;102479.63;;;15.69;63.91
58658;BME280;44428;45.630;13.786;2023-02-18T14:16:09;102467.91;;;14.09;68.85
58658;BME280;44428;45.630;13.786;2023-02-18T14:28:49;102455.91;;;12.53;76.97
58658;BME280;44428;45.630;13.786;2023-02-18T14:42:45;102442.25;;;12.26;80.19
58658;BME280;44428;45.630;13.786;2023-02-18T14:50:41;102445.81;;;12.25;80.22
58658;BME280;44428;45.630;13.786;2023-02-18T14:53:15;102443.63;;;12.16;80.71
58658;BME280;44428;45.630;13.786;2023-02-18T14:55:46;102447.91;;;12.01;81.28
58658;BME280;44428;45.630;13.786;2023-02-18T14:58:36;102443.72;;;11.77;82.94
58658;BME280;44428;45.630;13.786;2023-02-18T15:01:25;102444.69;;;11.57;84.25
58658;BME280;44428;45.630;13.786;2023-02-18T15:03:53;102436.88;;;11.54;84.41
58658;BME280;44428;45.630;13.786;2023-02-18T15:08:50;102447.63;;;11.51;84.99
58658;BME280;44428;45.630;13.786;2023-02-18T15:11:18;102444.31;;;11.45;85.10
58658;BME280;44428;45.630;13.786;2023-02-18T15:13:47;102446.16;;;11.43;85.41
58658;BME280;44428;45.630;13.786;2023-02-18T15:16:29;102434.88;;;11.21;86.11
58658;BME280;44428;45.630;13.786;2023-02-18T15:18:59;102435.13;;;11.15;87.07
58658;BME280;44428;45.630;13.786;2023-02-18T15:21:32;102442.09;;;10.97;87.51
58658;BME280;44428;45.630;13.786;2023-02-18T15:26:45;102445.88;;;10.71;89.82
58658;BME280;44428;45.630;13.786;2023-02-18T15:29:19;102435.06;;;10.57;90.95
58658;BME280;44428;45.630;13.786;2023-02-18T15:31:47;102425.53;;;10.52;91.39
58658;BME280;44428;45.630;13.786;2023-02-18T15:34:29;102443.50;;;10.44;92.34
58658;BME280;44428;45.630;13.786;2023-02-18T15:36:58;102432.41;;;10.36;92.86
58658;BME280;44428;45.630;13.786;2023-02-18T15:39:24;102435.16;;;10.33;93.51
58658;BME280;44428;45.630;13.786;2023-02-18T15:41:52;102435.28;;;10.30;93.75
58658;BME280;44428;45.630;13.786;2023-02-18T15:44:25;102422.81;;;10.12;95.04
58658;BME280;44428;45.630;13.786;2023-02-18T15:46:52;102419.50;;;10.06;95.75
58658;BME280;44428;45.630;13.786;2023-02-18T15:49:21;102415.00;;;10.08;96.07
58658;BME280;44428;45.630;13.786;2023-02-18T15:51:55;102411.69;;;10.03;96.13
58658;BME280;44428;45.630;13.786;2023-02-18T15:54:23;102409.97;;;10.02;95.77
58658;BME280;44428;45.630;13.786;2023-02-18T15:56:51;102410.22;;;9.96;96.08